Latest Weather Observations for Norfolk Island

IDN60801

Issued at 10:03 pm EDT Saturday 16 December 2017 (issued every 30 minutes, with the page automatically refreshed every 10 minutes)

About weather observations | Map of weather stations | Latest weather observations for NSW | Other Formats
Station Details ID: 200288 Name: NORFOLK ISLAND AERO Lat: -29.04 Lon: 167.94 Height: 111.73 m
Data from the previous 72 hours. | See also: Recent months at Norfolk Island
Date/Time
EDT
Temp
°C
App
Temp
°C
Dew
Point
°C
Rel
Hum
%
Delta-T
°C
Wind Press
QNH
hPa
Press
MSL
hPa
Rain since
9am
mm
Dir  Spd
km/h
Gust
km/h
Spd
kts
Gust
kts
16/10:00pm 20.3 17.6 15.5 74 2.9 E 24 32 13 17 1019.1 1018.7 0.0
16/09:30pm 20.0 18.3 16.2 79 2.3 ENE 20 28 11 15 1019.1 1018.7 0.0
16/09:00pm 20.1 18.0 16.1 78 2.4 E 22 33 12 18 1019.0 1018.6 0.0
16/08:30pm 20.5 18.7 16.1 76 2.7 E 20 32 11 17 1018.8 1018.4 0.0
16/08:00pm 20.4 18.7 15.8 75 2.8 E 19 30 10 16 1018.5 1018.1 0.0
16/07:30pm 20.7 19.0 16.3 76 2.7 E 20 30 11 16 1018.3 1017.9 0.0
16/07:00pm 20.9 18.8 16.1 74 2.9 E 22 32 12 17 1018.2 1017.8 0.0
16/06:30pm 21.1 19.3 15.9 72 3.1 E 20 30 11 16 1018.1 1017.7 0.0
16/06:00pm 21.3 19.0 15.8 71 3.3 E 22 33 12 18 1018.0 1017.6 0.0
16/05:30pm 21.6 18.5 15.7 69 3.5 E 26 33 14 18 1017.8 1017.4 0.0
16/05:00pm 21.9 19.2 15.5 67 3.8 E 24 33 13 18 1017.5 1017.1 0.0
16/04:30pm 22.1 18.9 15.2 65 4.1 E 26 35 14 19 1017.3 1016.9 0.0
16/04:00pm 22.8 19.9 16.1 66 4.1 E 26 39 14 21 1017.3 1016.9 0.0
16/03:30pm 23.1 20.0 15.7 63 4.5 E 26 41 14 22 1017.5 1017.1 0.0
16/03:00pm 22.9 19.7 15.2 62 4.6 E 26 39 14 21 1017.7 1017.3 0.0
16/02:30pm 23.1 19.6 15.4 62 4.6 E 28 41 15 22 1018.0 1017.6 0.0
16/02:00pm 23.0 19.2 15.8 64 4.4 E 30 41 16 22 1018.1 1017.7 0.0
16/01:30pm 23.6 20.4 16.4 64 4.4 E 28 39 15 21 1018.4 1018.0 0.0
16/01:00pm 23.5 20.6 17.0 67 4.0 E 28 39 15 21 1018.5 1018.1 0.0
16/12:30pm 23.4 19.9 16.4 64 4.3 E 30 41 16 22 1018.7 1018.3 0.0
16/12:00pm 22.9 19.7 16.4 67 4.0 E 28 37 15 20 1019.0 1018.6 0.0
16/11:30am 22.9 19.7 16.4 67 4.0 E 28 37 15 20 1019.1 1018.7 0.0
16/11:00am 22.9 21.1 17.8 73 3.2 E 24 35 13 19 1019.2 1018.8 0.0
16/10:30am 23.4 20.2 17.2 68 3.8 E 30 41 16 22 1019.1 1018.7 0.0
16/10:00am 23.3 21.3 17.5 70 3.6 E 24 33 13 18 1019.1 1018.7 0.0
16/09:30am 22.6 20.0 16.9 70 3.5 E 26 33 14 18 1019.1 1018.7 0.0
16/09:00am 23.0 19.6 15.8 64 4.4 E 28 37 15 20 1019.1 1018.7 0.0
16/08:30am 22.3 20.2 16.3 69 3.7 E 22 32 12 17 1019.1 1018.7 0.0
16/08:00am 22.8 20.9 16.6 68 3.8 ESE 22 32 12 17 1019.2 1018.8 0.0
16/07:30am 22.4 20.6 16.0 67 3.9 E 20 30 11 16 1019.2 1018.8 0.0
16/07:00am 22.2 20.1 16.2 69 3.6 ESE 22 30 12 16 1019.1 1018.7 0.0
16/06:30am 21.2 19.9 15.7 71 3.3 E 17 26 9 14 1018.8 1018.4 0.0
16/06:00am 21.1 19.1 15.6 71 3.3 E 20 30 11 16 1018.4 1018.0 0.0
16/05:30am 19.7 18.6 15.4 76 2.6 E 15 22 8 12 1018.2 1017.8 0.0
16/05:00am 19.8 19.1 16.3 80 2.1 E 15 20 8 11 1017.8 1017.4 0.0
16/04:30am 19.2 18.7 15.9 81 2.0 ESE 13 19 7 10 1017.7 1017.3 0.0
16/04:00am 19.2 18.2 15.7 80 2.1 ESE 15 19 8 10 1017.5 1017.1 0.0
16/03:30am 18.9 18.3 15.6 81 2.0 E 13 17 7 9 1017.5 1017.1 0.0
16/03:00am 19.1 18.6 15.8 81 2.0 E 13 19 7 10 1017.4 1017.0 0.0
16/02:30am 19.1 18.2 15.8 81 2.0 E 15 22 8 12 1017.2 1016.8 0.0
16/02:00am 19.4 18.1 15.9 80 2.1 E 17 24 9 13 1017.3 1016.9 0.0
16/01:30am 19.4 18.2 16.2 82 1.9 E 17 28 9 15 1017.5 1017.1 0.0
16/01:00am 19.4 18.2 16.1 81 2.0 E 17 24 9 13 1017.8 1017.4 0.0
16/12:30am 19.4 18.5 15.9 80 2.1 ESE 15 22 8 12 1017.9 1017.5 0.0
16/12:00am 19.5 18.1 15.6 78 2.3 E 17 22 9 12 1018.0 1017.6 0.0
 
Date/Time
EDT
Temp
°C
App
Temp
°C
Dew
Point
°C
Rel
Hum
%
Delta-T
°C
Wind Press
QNH
hPa
Press
MSL
hPa
Rain since
9am
mm
Dir  Spd
km/h
Gust
km/h
Spd
kts
Gust
kts
15/11:30pm 19.9 18.4 16.2 79 2.2 ESE 19 26 10 14 1018.4 1018.0 0.0
15/11:00pm 20.0 18.8 16.0 78 2.4 ESE 17 26 9 14 1018.6 1018.2 0.0
15/10:30pm 20.2 19.2 16.6 80 2.2 ESE 17 30 9 16 1018.7 1018.3 0.0
15/10:00pm 20.1 19.2 16.9 82 1.9 ESE 17 24 9 13 1018.6 1018.2 0.0
15/09:30pm 20.1 19.1 16.7 81 2.1 ESE 17 26 9 14 1018.4 1018.0 0.0
15/09:00pm 20.3 19.4 16.9 81 2.1 ESE 17 26 9 14 1018.1 1017.7 0.0
15/08:30pm 20.3 19.0 16.7 80 2.2 ESE 19 28 10 15 1017.8 1017.4 0.0
15/08:00pm 20.2 19.1 16.4 79 2.3 E 17 26 9 14 1017.6 1017.2 0.0
15/07:30pm 20.4 19.3 16.4 78 2.4 ESE 17 26 9 14 1017.3 1016.9 0.0
15/07:00pm 20.5 19.1 16.5 78 2.4 ESE 19 28 10 15 1016.9 1016.5 0.0
15/06:30pm 20.6 19.1 16.4 77 2.5 E 19 26 10 14 1016.7 1016.3 0.0
15/06:00pm 21.2 20.1 16.4 74 2.9 E 17 28 9 15 1016.6 1016.2 0.0
15/05:30pm 21.9 20.9 16.6 72 3.2 ESE 17 26 9 14 1016.2 1015.8 0.0
15/05:00pm 21.9 20.3 16.6 72 3.2 SE 20 30 11 16 1016.0 1015.6 0.0
15/04:30pm 22.5 21.7 17.0 71 3.4 ESE 17 30 9 16 1015.8 1015.4 0.0
15/04:00pm 22.7 21.5 17.4 72 3.3 E 20 28 11 15 1015.7 1015.3 0.0
15/03:30pm 22.8 20.2 15.9 65 4.2 E 24 33 13 18 1015.8 1015.4 0.0
15/03:00pm 22.8 20.4 16.4 67 3.9 E 24 33 13 18 1016.0 1015.6 0.0
15/02:30pm 23.0 21.1 16.8 68 3.8 E 22 35 12 19 1016.3 1015.9 0.0
15/02:00pm 23.1 21.2 17.6 71 3.4 E 24 35 13 19 1016.5 1016.1 0.0
15/01:30pm 23.3 20.7 16.8 67 4.0 E 26 37 14 20 1016.7 1016.3 0.0
15/01:00pm 23.1 20.8 16.6 67 4.0 E 24 33 13 18 1016.9 1016.5 0.0
15/12:30pm 24.3 21.7 17.8 67 4.1 E 28 37 15 20 1016.8 1016.4 0.0
15/12:00pm 23.0 20.1 16.1 65 4.2 E 26 39 14 21 1016.9 1016.5 0.0
15/11:30am 23.7 20.8 17.0 66 4.1 E 28 41 15 22 1017.0 1016.6 0.0
15/11:00am 22.5 21.2 17.2 72 3.3 ESE 20 30 11 16 1017.1 1016.7 0.0
15/10:30am 21.8 19.8 16.5 72 3.2 SE 22 33 12 18 1017.1 1016.7 0.0
15/10:00am 22.8 20.6 17.0 70 3.6 SE 24 32 13 17 1017.0 1016.6 0.0
15/09:30am 22.4 20.7 17.3 73 3.2 SE 22 30 12 16 1017.2 1016.8 0.0
15/09:00am 22.6 20.3 16.6 69 3.7 SE 24 32 13 17 1017.2 1016.8 1.8
15/08:30am 22.3 20.7 16.6 70 3.5 SE 20 32 11 17 1017.1 1016.7 1.8
15/08:00am 22.4 21.7 17.3 73 3.2 ESE 17 22 9 12 1017.1 1016.7 1.8
15/07:30am 21.4 20.2 16.1 72 3.2 ESE 17 24 9 13 1017.2 1016.8 1.8
15/07:00am 21.5 20.5 16.5 73 3.0 ESE 17 28 9 15 1017.0 1016.6 1.8
15/06:30am 20.9 20.6 17.3 80 2.2 ESE 15 22 8 12 1016.7 1016.3 1.8
15/06:00am 20.0 19.5 16.8 82 1.9 ESE 15 20 8 11 1016.3 1015.9 1.8
15/05:30am 19.8 20.0 16.8 83 1.8 ESE 11 19 6 10 1016.1 1015.7 1.8
15/05:00am 19.1 18.7 16.1 83 1.8 E 13 17 7 9 1015.8 1015.4 1.8
15/04:30am 18.8 18.3 15.9 83 1.7 E 13 17 7 9 1015.5 1015.1 1.8
15/04:00am 18.5 17.9 15.7 84 1.7 E 13 19 7 10 1015.3 1014.9 1.8
15/03:30am 18.9 18.0 15.8 82 1.8 E 15 22 8 12 1015.1 1014.7 1.8
15/03:00am 19.0 18.2 16.0 83 1.8 E 15 24 8 13 1014.9 1014.5 1.8
15/02:30am 19.0 17.8 16.0 83 1.8 E 17 24 9 13 1014.7 1014.2 1.8
15/02:00am 19.3 18.6 16.5 84 1.7 E 15 20 8 11 1014.7 1014.2 1.8
15/01:30am 19.3 19.3 17.1 87 1.3 E 13 17 7 9 1014.9 1014.5 1.8
15/01:00am 19.3 19.3 17.3 88 1.2 E 13 19 7 10 1015.0 1014.6 1.8
15/12:30am 19.3 19.4 17.4 89 1.2 E 13 20 7 11 1015.2 1014.8 1.8
15/12:00am 19.3 19.0 17.3 88 1.2 E 15 19 8 10 1015.6 1015.2 1.8
 
Date/Time
EDT
Temp
°C
App
Temp
°C
Dew
Point
°C
Rel
Hum
%
Delta-T
°C
Wind Press
QNH
hPa
Press
MSL
hPa
Rain since
9am
mm
Dir  Spd
km/h
Gust
km/h
Spd
kts
Gust
kts
14/11:30pm 19.7 19.1 17.5 87 1.4 E 17 26 9 14 1015.9 1015.5 1.8
14/11:00pm 19.8 19.3 17.8 88 1.2 ESE 17 24 9 13 1016.0 1015.6 1.8
14/10:30pm 19.7 19.2 17.8 89 1.2 E 17 24 9 13 1016.0 1015.6 1.8
14/10:05pm 19.6 19.3 18.3 92 0.8 E 17 26 9 14 1016.0 1015.6 1.8
14/10:00pm 19.6 19.3 18.3 92 0.8 ESE 17 26 9 14 1016.1 1015.7 1.4
14/09:53pm 19.4 19.1 18.2 93 0.7 ESE 17 28 9 15 1016.1 1015.7 1.2
14/09:45pm 19.5 20.1 18.5 94 0.6 E 13 17 7 9 1016.1 1015.7 0.4
14/09:30pm 19.2 19.6 18.2 94 0.6 E 13 17 7 9 1016.0 1015.6 0.4
14/09:06pm 19.4 18.6 17.9 91 0.9 ESE 19 30 10 16 1015.9 1015.5 0.0
14/09:00pm 19.7 19.3 18.0 90 1.1 ESE 17 30 9 16 1015.9 1015.5 0.0
14/08:30pm 20.0 20.5 17.4 85 1.6 E 11 15 6 8 1015.6 1015.2 0.0
14/08:00pm 19.6 19.8 16.8 84 1.7 E 11 15 6 8 1015.2 1014.8 0.0
14/07:30pm 20.1 20.4 16.9 82 2.0 ESE 11 17 6 9 1015.1 1014.7 0.0
14/07:00pm 20.6 20.4 16.8 79 2.3 E 13 20 7 11 1014.8 1014.4 0.0
14/06:30pm 21.1 20.6 16.9 77 2.6 ESE 15 22 8 12 1014.5 1014.0 0.0
14/06:00pm 21.2 20.6 16.6 75 2.8 SE 15 22 8 12 1014.1 1013.6 0.0
14/05:30pm 21.9 21.0 16.8 73 3.1 SE 17 26 9 14 1013.8 1013.3 0.0
14/05:00pm 22.0 21.4 16.7 72 3.2 SE 15 22 8 12 1013.4 1013.0 0.0
14/04:30pm 22.3 20.9 16.6 70 3.5 SE 19 28 10 15 1013.1 1012.7 0.0
14/04:00pm 22.8 21.5 16.8 69 3.7 SE 19 26 10 14 1013.1 1012.7 0.0
14/03:30pm 22.6 21.3 17.3 72 3.3 SE 20 28 11 15 1013.3 1012.9 0.0
14/03:00pm 22.8 21.5 17.3 71 3.4 SE 20 28 11 15 1013.3 1012.9 0.0
14/02:30pm 23.1 22.3 18.0 73 3.2 SE 19 30 10 16 1013.3 1012.9 0.0
14/02:00pm 23.3 22.6 18.6 75 3.0 SE 20 28 11 15 1013.3 1012.9 0.0
14/01:30pm 22.4 21.1 17.3 73 3.2 SE 20 32 11 17 1013.5 1013.1 0.0
14/01:00pm 22.3 20.7 17.4 74 3.0 SE 22 32 12 17 1013.9 1013.4 0.0
14/12:30pm 22.8 21.5 18.1 75 3.0 SE 22 30 12 16 1014.1 1013.6 0.0
14/12:00pm 22.8 21.4 17.9 74 3.1 SE 22 32 12 17 1014.2 1013.7 0.0
14/11:30am 22.7 21.2 17.8 74 3.1 SE 22 32 12 17 1014.4 1013.9 0.0
14/11:00am 22.4 21.0 18.0 76 2.8 SE 22 30 12 16 1014.5 1014.0 0.0
14/10:30am 22.8 21.4 17.9 74 3.1 SE 22 30 12 16 1014.7 1014.2 0.0
14/10:00am 23.0 22.2 17.9 73 3.2 SE 19 28 10 15 1014.7 1014.2 0.0
14/09:30am 22.6 21.3 17.3 72 3.3 SE 20 28 11 15 1014.9 1014.5 0.0
14/09:00am 22.7 22.1 17.6 73 3.2 SE 17 28 9 15 1015.0 1014.6 0.2
14/08:30am 22.3 21.5 17.2 73 3.2 SE 17 26 9 14 1015.1 1014.7 0.2
14/08:00am 22.2 21.4 17.1 73 3.1 SE 17 26 9 14 1015.0 1014.6 0.2
14/07:30am 21.5 20.1 17.1 76 2.7 SE 20 26 11 14 1015.0 1014.6 0.2
14/07:00am 21.2 20.9 17.4 79 2.3 SE 15 24 8 13 1015.0 1014.6 0.2
14/06:54am 21.3 21.1 17.7 80 2.2 SE 15 24 8 13 1014.9 1014.5 0.2
14/06:40am 21.2 20.8 18.0 82 2.0 SSE 17 22 9 12 1014.9 1014.5 0.2
14/06:37am 20.9 20.3 17.5 81 2.1 SSE 17 24 9 13 1014.9 1014.5 0.2
14/06:30am 20.7 20.5 17.7 83 1.9 SSE 15 24 8 13 1014.8 1014.4 0.2
14/06:00am 19.9 19.5 17.1 84 1.7 SSE 15 24 8 13 1014.7 1014.2 0.2
14/05:50am 19.8 19.9 17.4 86 1.5 SSE 13 19 7 10 1014.6 1014.1 0.2
14/05:49am 19.8 19.9 17.4 86 1.5 SSE 13 19 7 10 1014.6 1014.1 0.2
14/05:31am 19.8 19.9 17.4 86 1.5 SSE 13 19 7 10 1014.4 1013.9 0.2
14/05:30am 19.7 19.9 17.7 88 1.2 SSE 13 19 7 10 1014.4 1013.9 0.2
14/05:27am 19.8 20.1 17.8 88 1.2 SSE 13 19 7 10 1014.4 1013.9 0.2
14/05:00am 19.3 19.3 17.3 88 1.2 SSE 13 17 7 9 1014.1 1013.6 0.2
14/04:30am 19.1 19.9 17.2 89 1.2 SSE 9 15 5 8 1014.0 1013.5 0.2
14/04:24am 19.1 19.9 17.4 90 1.0 SSE 9 13 5 7 1014.0 1013.5 0.2
14/04:00am 18.9 19.2 17.0 89 1.2 SSE 11 15 6 8 1013.7 1013.2 0.2
14/03:30am 19.0 18.9 17.0 88 1.2 SSE 13 17 7 9 1013.4 1013.0 0.2
14/03:01am 19.2 19.2 17.3 89 1.2 SSE 13 17 7 9 1013.3 1012.9 0.2
14/03:00am 19.1 19.1 17.2 89 1.2 SSE 13 17 7 9 1013.3 1012.9 0.2
14/02:30am 19.5 19.4 17.8 90 1.0 SSE 15 22 8 12 1013.2 1012.8 0.2
14/02:14am 19.5 19.8 18.0 91 0.9 SSE 13 17 7 9 1013.3 1012.9 0.2
14/02:00am 19.3 19.5 17.6 90 1.0 SSE 13 19 7 10 1013.4 1013.0 0.2
14/01:30am 19.5 20.1 17.8 90 1.0 SSE 11 15 6 8 1013.7 1013.2 0.2
14/01:00am 18.9 19.5 16.9 88 1.2 SE 9 15 5 8 1013.8 1013.3 0.2
14/12:30am 18.9 19.5 16.9 88 1.2 SE 9 13 5 7 1014.1 1013.6 0.2
14/12:00am 19.3 20.0 17.1 87 1.3 ESE 9 11 5 6 1014.4 1013.9 0.2
 
Date/Time
EDT
Temp
°C
App
Temp
°C
Dew
Point
°C
Rel
Hum
%
Delta-T
°C
Wind Press
QNH
hPa
Press
MSL
hPa
Rain since
9am
mm
Dir  Spd
km/h
Gust
km/h
Spd
kts
Gust
kts
13/11:30pm 19.4 20.5 17.2 87 1.3 ESE 7 13 4 7 1014.5 1014.0 0.2
13/11:00pm 19.0 19.2 16.8 87 1.3 SE 11 15 6 8 1014.7 1014.2 0.2
13/10:30pm 18.9 19.5 16.7 87 1.3 ESE 9 11 5 6 1014.9 1014.5 0.2
13/10:00pm 18.9 19.5 16.7 87 1.3 SE 9 13 5 7 1015.1 1014.7 0.2

Other Formats:

Comma delimited format used in spreadsheet applications
http://www.bom.gov.au/fwo/IDN60801/IDN60801.94996.axf

JavaScript Object Notation format (JSON) in row-major order
http://www.bom.gov.au/fwo/IDN60801/IDN60801.94996.json